Time;durP1;ratioP1;P1;durP2;ratioP2;P2;SDS_P1;SDS_P2;PMS_P1;PMS_P2;Temp;Humidity;BMP_temperature;BMP_pressure;BME280_temperature;BME280_humidity;BME280_pressure;Samples;Min_cycle;Max_cycle;Signal;HPM_P1;HPM_P2
2022/05/28 00:01:51;;;;;;;3.50;1.50;;;;;;;;;;5124513;28;20178;-85
2022/05/28 00:04:17;;;;;;;1.80;1.40;;;;;;;;;;5123085;28;20183;-85
2022/05/28 00:06:45;;;;;;;2.43;1.57;;;;;;;;;;5122299;28;20199;-86
2022/05/28 00:09:11;;;;;;;4.47;1.70;;;;;;;;;;5123649;28;20182;-85
2022/05/28 00:11:38;;;;;;;2.43;1.93;;;;;;;;;;5123149;28;20211;-85
2022/05/28 00:14:05;;;;;;;1.50;1.40;;;;;;;;;;5122706;28;20187;-85
2022/05/28 00:16:31;;;;;;;4.07;1.30;;;;;;;;;;5124587;28;20274;-86
2022/05/28 00:18:57;;;;;;;2.07;1.53;;;;;;;;;;5123794;28;20187;-86
2022/05/28 00:21:24;;;;;;;1.60;1.50;;;;;;;;;;5124729;28;20216;-86
2022/05/28 00:23:50;;;;;;;3.37;1.57;;;;;;;;;;5124956;28;20201;-85
2022/05/28 00:26:16;;;;;;;2.57;1.60;;;;;;;;;;5124140;28;20209;-86
2022/05/28 00:28:42;;;;;;;2.03;1.37;;;;;;;;;;5123396;28;20199;-86
2022/05/28 00:31:08;;;;;;;1.63;1.53;;;;;;;;;;5122857;28;20264;-86
2022/05/28 00:33:34;;;;;;;1.50;1.40;;;;;;;;;;5123910;28;20171;-86
2022/05/28 00:36:01;;;;;;;2.03;1.73;;;;;;;;;;5124159;28;20199;-86
2022/05/28 00:38:28;;;;;;;3.10;1.67;;;;;;;;;;5126065;28;20172;-86
2022/05/28 00:40:55;;;;;;;4.60;1.70;;;;;;;;;;5125525;28;20190;-86
2022/05/28 00:43:22;;;;;;;1.40;1.20;;;;;;;;;;5125531;28;20275;-86
2022/05/28 00:45:49;;;;;;;1.70;1.60;;;;;;;;;;5126414;28;20187;-86
2022/05/28 00:48:20;;;;;;;2.60;1.70;;;;;;;;;;5139151;28;20171;-87
2022/05/28 00:50:46;;;;;;;1.60;1.50;;;;;;;;;;5139073;28;20203;-85
2022/05/28 00:53:13;;;;;;;2.50;1.50;;;;;;;;;;5131973;28;20172;-86
2022/05/28 00:55:39;;;;;;;2.73;1.80;;;;;;;;;;5125780;28;20194;-86
2022/05/28 00:58:08;;;;;;;3.67;1.60;;;;;;;;;;5125368;28;20171;-86
2022/05/28 01:00:34;;;;;;;2.13;1.70;;;;;;;;;;5127770;28;20517;-86
2022/05/28 01:03:08;;;;;;;1.53;1.43;;;;;;;;;;5123161;28;20222;-85
2022/05/28 01:05:47;;;;;;;2.17;1.50;;;;;;;;;;5123903;28;20198;-85
2022/05/28 01:08:16;;;;;;;2.50;1.87;;;;;;;;;;5123384;28;20705;-85
2022/05/28 01:11:04;;;;;;;2.40;2.00;;;11.90;99.90;;;;;;5122455;28;20203;-85
2022/05/28 01:13:44;;;;;;;3.83;1.97;;;11.90;99.90;;;;;;5122759;28;20281;-86
2022/05/28 01:16:10;;;;;;;3.07;1.77;;;;;;;;;;5122194;28;20249;-85
2022/05/28 01:18:36;;;;;;;4.67;2.30;;;;;;;;;;5121656;28;20172;-85
2022/05/28 01:21:08;;;;;;;3.87;1.80;;;11.80;99.90;;;;;;5120785;28;20176;-85
2022/05/28 01:23:51;;;;;;;3.27;2.40;;;;;;;;;;5121903;28;20539;-85
2022/05/28 01:26:41;;;;;;;4.17;1.63;;;11.70;99.90;;;;;;5123234;28;20202;-85
2022/05/28 01:29:10;;;;;;;1.97;1.77;;;11.60;99.90;;;;;;5121194;28;20171;-85
2022/05/28 01:31:37;;;;;;;4.63;1.90;;;;;;;;;;5122299;28;20226;-85
2022/05/28 01:34:05;;;;;;;1.80;1.70;;;;;;;;;;5123197;28;20173;-85
2022/05/28 01:36:33;;;;;;;2.47;2.13;;;11.40;99.90;;;;;;5121953;28;20203;-86
2022/05/28 01:38:59;;;;;;;3.33;2.03;;;;;;;;;;5122392;28;20182;-85
2022/05/28 01:41:26;;;;;;;2.40;1.93;;;11.40;99.90;;;;;;5123206;28;20179;-85
2022/05/28 01:43:53;;;;;;;2.00;1.80;;;11.40;99.90;;;;;;5124656;28;20207;-85
2022/05/28 01:46:21;;;;;;;2.20;2.00;;;11.30;99.90;;;;;;5125315;28;20271;-86
2022/05/28 01:48:51;;;;;;;3.17;1.70;;;11.30;99.90;;;;;;5125775;28;20252;-85
2022/05/28 01:51:19;;;;;;;2.57;1.87;;;11.30;99.90;;;;;;5126677;28;20203;-85
2022/05/28 01:56:31;;;;;;;3.43;1.87;;;;;;;;;;5127400;28;20248;-86
2022/05/28 01:58:57;;;;;;;2.90;2.03;;;;;;;;;;5124929;28;20250;-86
2022/05/28 02:01:23;;;;;;;2.30;2.10;;;;;;;;;;5125165;28;20183;-86
2022/05/28 02:03:52;;;;;;;3.43;2.03;;;11.30;99.90;;;;;;5125655;28;20621;-86
2022/05/28 02:06:18;;;;;;;4.30;2.10;;;;;;;;;;5128284;28;20231;-85
2022/05/28 02:08:46;;;;;;;3.13;2.20;;;11.20;99.90;;;;;;5128136;28;20276;-85
2022/05/28 02:11:22;;;;;;;2.37;1.83;;;11.20;99.90;;;;;;5126752;28;20210;-86
2022/05/28 02:13:54;;;;;;;2.37;2.07;;;;;;;;;;5127763;28;20256;-86
2022/05/28 02:16:53;;;;;;;2.27;2.00;;;11.20;99.90;;;;;;5127326;28;20198;-86
2022/05/28 02:19:33;;;;;;;2.80;2.30;;;11.10;99.90;;;;;;5128242;28;20218;-86
2022/05/28 02:22:25;;;;;;;2.77;2.33;;;11.10;99.90;;;;;;5129452;28;20180;-86
2022/05/28 02:24:56;;;;;;;2.87;2.27;;;11.00;99.90;;;;;;5117555;28;20184;-86
2022/05/28 02:27:24;;;;;;;4.13;2.27;;;11.00;99.90;;;;;;5127740;28;20733;-86
2022/05/28 02:29:51;;;;;;;2.23;2.03;;;11.00;99.90;;;;;;5128194;28;20186;-86
2022/05/28 02:32:23;;;;;;;3.83;2.50;;;11.00;99.90;;;;;;5127650;28;20238;-86
2022/05/28 02:34:50;;;;;;;4.13;2.47;;;;;;;;;;5127977;28;20176;-86
2022/05/28 02:37:22;;;;;;;3.30;2.27;;;11.10;99.90;;;;;;5128594;28;20183;-86
2022/05/28 02:39:48;;;;;;;4.40;2.50;;;11.10;99.90;;;;;;5128180;28;20187;-86
2022/05/28 02:42:15;;;;;;;2.97;2.20;;;;;;;;;;5127918;28;20185;-86
2022/05/28 02:44:40;;;;;;;3.23;2.60;;;11.10;99.90;;;;;;5128988;28;20204;-86
2022/05/28 02:47:07;;;;;;;3.33;2.37;;;;;;;;;;5128291;28;20286;-86
2022/05/28 02:49:33;;;;;;;3.23;2.40;;;11.20;99.90;;;;;;5128234;28;20179;-86
2022/05/28 02:52:03;;;;;;;3.50;2.33;;;11.20;99.90;;;;;;5131332;28;20214;-85
2022/05/28 02:54:30;;;;;;;2.43;2.23;;;11.20;99.90;;;;;;5138232;28;20183;-85
2022/05/28 02:56:56;;;;;;;4.50;2.10;;;11.20;99.90;;;;;;5138169;28;20193;-85
2022/05/28 02:59:22;;;;;;;2.67;2.43;;;;;;;;;;5138128;28;20175;-84
2022/05/28 03:01:48;;;;;;;3.33;2.10;;;;;;;;;;5135998;28;20204;-86
2022/05/28 03:04:14;;;;;;;3.40;2.03;;;11.10;99.90;;;;;;5127460;28;20279;-86
2022/05/28 03:06:40;;;;;;;2.47;2.23;;;11.10;99.90;;;;;;5127464;28;20230;-85
2022/05/28 03:09:06;;;;;;;3.03;2.20;;;11.10;99.90;;;;;;5128223;28;20201;-85
2022/05/28 03:11:33;;;;;;;2.77;2.17;;;11.10;99.90;;;;;;5127337;28;20207;-86
2022/05/28 03:13:59;;;;;;;3.90;2.70;;;11.20;99.90;;;;;;5126824;28;20198;-86
2022/05/28 03:16:25;;;;;;;3.53;2.30;;;;;;;;;;5127366;28;20198;-86
2022/05/28 03:18:51;;;;;;;3.03;2.37;;;11.10;99.90;;;;;;5125787;28;20176;-86
2022/05/28 03:21:17;;;;;;;3.47;2.50;;;11.20;99.90;;;;;;5126435;28;20192;-85
2022/05/28 03:23:47;;;;;;;3.60;2.23;;;11.10;99.90;;;;;;5126995;28;20539;-85
2022/05/28 03:26:19;;;;;;;2.70;2.50;;;11.20;99.90;;;;;;5125690;28;20566;-85
2022/05/28 03:28:46;;;;;;;2.53;2.33;;;;;;;;;;5126522;28;20190;-86
2022/05/28 03:31:12;;;;;;;3.90;2.60;;;11.20;99.90;;;;;;5126661;28;20560;-85
2022/05/28 03:33:38;;;;;;;2.93;2.50;;;11.30;99.90;;;;;;5128064;28;20224;-86
2022/05/28 03:36:05;;;;;;;3.47;2.40;;;11.50;99.90;;;;;;5126415;28;20200;-86
2022/05/28 03:38:31;;;;;;;3.20;2.53;;;11.50;99.90;;;;;;5128147;28;20175;-86
2022/05/28 03:40:58;;;;;;;5.83;2.60;;;;;;;;;;5126735;28;20175;-86
2022/05/28 03:43:25;;;;;;;4.53;2.40;;;11.60;99.90;;;;;;5126479;28;20179;-86
2022/05/28 03:45:50;;;;;;;2.57;2.37;;;11.70;99.90;;;;;;5127080;28;20205;-86
2022/05/28 03:48:17;;;;;;;6.33;2.13;;;11.70;99.90;;;;;;5127821;28;20183;-86
2022/05/28 03:50:42;;;;;;;4.50;2.53;;;11.70;99.90;;;;;;5127602;28;20761;-85
2022/05/28 03:53:08;;;;;;;3.77;2.90;;;;;;;;;;5126690;28;20189;-86
2022/05/28 03:55:34;;;;;;;5.23;2.73;;;;;;;;;;5128256;28;20199;-86
2022/05/28 03:58:00;;;;;;;4.03;3.00;;;;;;;;;;5128258;28;20182;-87
2022/05/28 04:00:26;;;;;;;4.13;2.93;;;;;;;;;;5126823;28;20190;-86
2022/05/28 04:02:52;;;;;;;4.30;2.97;;;11.70;99.90;;;;;;5126627;28;20187;-86
2022/05/28 04:05:18;;;;;;;4.70;3.27;;;;;;;;;;5125563;28;20183;-85
2022/05/28 04:07:44;;;;;;;5.47;3.30;;;11.60;99.90;;;;;;5126756;28;20190;-86
2022/05/28 04:10:10;;;;;;;3.90;3.50;;;;;;;;;;5126957;28;20179;-85
2022/05/28 04:12:36;;;;;;;6.37;3.80;;;;;;;;;;5126913;28;20206;-86
2022/05/28 04:15:02;;;;;;;4.63;3.43;;;11.50;99.90;;;;;;5126031;28;20243;-85
2022/05/28 04:17:29;;;;;;;4.17;3.60;;;;;;;;;;5128078;28;20192;-86
2022/05/28 04:19:55;;;;;;;4.87;3.70;;;11.40;99.90;;;;;;5126584;28;20246;-86
2022/05/28 04:22:20;;;;;;;9.40;3.87;;;11.30;99.90;;;;;;5127255;28;20175;-86
2022/05/28 04:24:46;;;;;;;7.47;3.63;;;11.40;99.90;;;;;;5126971;28;20187;-86
2022/05/28 04:27:11;;;;;;;6.03;3.37;;;11.30;99.90;;;;;;5127796;28;20234;-86
2022/05/28 04:29:37;;;;;;;4.30;3.30;;;;;;;;;;5127862;28;20198;-86
2022/05/28 04:32:04;;;;;;;6.93;4.13;;;;;;;;;;5128310;28;20207;-86
2022/05/28 04:34:29;;;;;;;4.87;3.60;;;11.30;99.90;;;;;;5126381;28;20194;-86
2022/05/28 04:36:55;;;;;;;6.37;3.67;;;11.30;99.90;;;;;;5126888;28;20198;-86
2022/05/28 04:39:20;;;;;;;5.83;3.70;;;11.30;99.90;;;;;;5127584;28;20174;-86
2022/05/28 04:41:46;;;;;;;9.33;3.70;;;;;;;;;;5128216;28;20202;-86
2022/05/28 04:44:12;;;;;;;7.03;3.30;;;11.20;99.90;;;;;;5126873;28;20175;-86
2022/05/28 04:46:38;;;;;;;8.47;3.77;;;;;;;;;;5126357;28;20272;-86
2022/05/28 04:49:04;;;;;;;4.53;3.37;;;11.10;99.90;;;;;;5126543;28;20609;-86
2022/05/28 04:51:30;;;;;;;6.10;3.77;;;11.10;99.90;;;;;;5125693;28;20238;-86
2022/05/28 04:53:56;;;;;;;3.67;3.10;;;;;;;;;;5125583;28;20182;-86
2022/05/28 04:56:22;;;;;;;5.90;3.40;;;11.10;99.90;;;;;;5126375;28;20202;-86
2022/05/28 04:58:48;;;;;;;8.57;3.63;;;;;;;;;;5125403;28;20175;-86
2022/05/28 05:01:16;;;;;;;9.83;4.23;;;11.30;99.90;;;;;;5132876;28;20176;-86
2022/05/28 05:03:42;;;;;;;10.40;3.87;;;11.30;99.90;;;;;;5127464;28;20183;-86
2022/05/28 05:06:08;;;;;;;7.87;3.70;;;11.30;99.90;;;;;;5122124;28;20191;-87
2022/05/28 05:08:34;;;;;;;4.57;3.20;;;11.30;99.90;;;;;;5121835;28;20235;-86
2022/05/28 05:11:00;;;;;;;7.10;3.40;;;11.30;99.90;;;;;;5123160;28;20210;-86
2022/05/28 05:13:26;;;;;;;9.27;3.57;;;11.40;99.90;;;;;;5121774;28;20171;-86
2022/05/28 05:15:52;;;;;;;8.70;3.53;;;11.40;99.90;;;;;;5121640;28;20348;-86
2022/05/28 05:18:18;;;;;;;6.20;3.80;;;11.40;99.90;;;;;;5126201;28;20209;-86
2022/05/28 05:20:43;;;;;;;5.93;3.37;;;11.40;99.90;;;;;;5126356;28;20548;-86
2022/05/28 05:23:09;;;;;;;6.63;3.40;;;11.40;99.90;;;;;;5126675;28;20216;-86
2022/05/28 05:25:35;;;;;;;7.90;3.57;;;;;;;;;;5125591;28;20231;-86
2022/05/28 05:28:01;;;;;;;8.10;3.27;;;11.60;99.90;;;;;;5125561;28;20736;-86
2022/05/28 05:30:26;;;;;;;6.47;3.20;;;11.60;99.90;;;;;;5125290;28;20307;-86
2022/05/28 05:32:52;;;;;;;9.00;3.67;;;;;;;;;;5126369;28;20170;-86
2022/05/28 05:35:18;;;;;;;6.07;3.50;;;11.70;99.90;;;;;;5124861;28;20175;-86
2022/05/28 05:37:44;;;;;;;4.23;2.90;;;11.70;99.90;;;;;;5124458;28;20175;-86
2022/05/28 05:40:11;;;;;;;4.97;3.00;;;11.80;99.90;;;;;;5124279;28;20168;-86
2022/05/28 05:42:36;;;;;;;6.03;3.40;;;11.70;99.90;;;;;;5125836;28;20336;-86
2022/05/28 05:45:03;;;;;;;5.10;3.00;;;11.80;99.90;;;;;;5124748;28;20167;-86
2022/05/28 05:47:28;;;;;;;6.27;3.20;;;11.80;99.90;;;;;;5125748;27;20187;-86
2022/05/28 05:49:54;;;;;;;8.70;3.43;;;11.90;99.90;;;;;;5125433;28;20171;-86
2022/05/28 05:52:20;;;;;;;8.43;3.40;;;11.90;99.90;;;;;;5125061;28;20209;-86
2022/05/28 05:54:45;;;;;;;6.73;3.30;;;12.00;99.90;;;;;;5124555;28;20194;-86
2022/05/28 05:57:11;;;;;;;4.23;2.80;;;12.00;99.90;;;;;;5124999;28;20198;-86
2022/05/28 05:59:36;;;;;;;10.53;3.30;;;12.20;99.90;;;;;;5127489;28;20179;-86
2022/05/28 06:02:02;;;;;;;6.07;3.57;;;12.30;99.90;;;;;;5139597;28;20205;-85
2022/05/28 06:04:28;;;;;;;6.20;3.30;;;;;;;;;;5139813;28;20187;-85
2022/05/28 06:06:54;;;;;;;5.17;3.00;;;12.30;99.90;;;;;;5138383;28;20186;-85
2022/05/28 06:09:20;;;;;;;6.97;2.83;;;12.30;99.90;;;;;;5137614;28;20187;-85
2022/05/28 06:11:46;;;;;;;6.73;3.30;;;;;;;;;;5125159;28;20285;-86
2022/05/28 06:14:11;;;;;;;11.13;3.10;;;12.50;99.90;;;;;;5120561;28;20675;-86
2022/05/28 06:16:37;;;;;;;4.57;2.70;;;12.60;99.90;;;;;;5120095;28;20248;-86
2022/05/28 06:19:04;;;;;;;6.87;2.57;;;12.60;99.90;;;;;;5119743;28;20179;-86
2022/05/28 06:21:30;;;;;;;6.50;3.13;;;12.50;99.90;;;;;;5121094;28;20250;-86
2022/05/28 06:23:55;;;;;;;4.33;2.60;;;12.50;99.90;;;;;;5121867;28;20203;-86
2022/05/28 06:26:21;;;;;;;5.37;2.30;;;12.40;99.90;;;;;;5120380;28;20204;-86
2022/05/28 06:28:47;;;;;;;6.73;2.90;;;12.40;99.90;;;;;;5119271;28;20541;-86
2022/05/28 06:31:13;;;;;;;6.20;2.60;;;12.40;99.90;;;;;;5120427;28;20203;-86
2022/05/28 06:33:40;;;;;;;7.77;2.80;;;12.30;99.90;;;;;;5121933;28;20224;-86
2022/05/28 06:36:08;;;;;;;6.50;2.43;;;12.40;99.90;;;;;;5121098;28;20729;-86
2022/05/28 06:38:34;;;;;;;7.47;2.40;;;12.50;99.90;;;;;;5120495;28;20180;-86
2022/05/28 06:41:02;;;;;;;8.13;2.60;;;12.60;99.90;;;;;;5121116;28;20183;-86
2022/05/28 06:43:28;;;;;;;8.37;2.53;;;12.80;99.90;;;;;;5122293;28;20209;-86
2022/05/28 06:45:54;;;;;;;5.33;2.53;;;13.00;99.90;;;;;;5120557;28;20230;-86
2022/05/28 06:48:20;;;;;;;5.13;2.83;;;;;;;;;;5120821;28;20179;-86
2022/05/28 06:51:04;;;;;;;8.03;3.00;;;13.10;99.90;;;;;;5120329;28;20286;-84
2022/05/28 06:53:48;;;;;;;6.60;2.40;;;13.30;99.90;;;;;;5122581;28;20172;-84
2022/05/28 06:56:16;;;;;;;7.77;3.23;;;13.50;99.90;;;;;;5120644;28;20200;-86
2022/05/28 06:58:43;;;;;;;8.17;2.70;;;13.40;99.90;;;;;;5119965;28;20183;-86
2022/05/28 07:01:10;;;;;;;4.73;2.40;;;13.40;99.90;;;;;;5119979;28;20187;-84
2022/05/28 07:03:37;;;;;;;6.10;2.70;;;13.40;99.90;;;;;;5120857;28;20171;-83
2022/05/28 07:06:03;;;;;;;6.83;2.57;;;13.50;99.90;;;;;;5118845;28;20209;-84
2022/05/28 07:08:29;;;;;;;5.67;2.60;;;13.40;99.90;;;;;;5120034;28;20176;-84
2022/05/28 07:10:57;;;;;;;5.33;2.40;;;13.30;99.90;;;;;;5118485;28;20203;-84
2022/05/28 07:13:25;;;;;;;6.43;2.60;;;13.10;99.90;;;;;;5118277;28;20200;-84
2022/05/28 07:15:51;;;;;;;10.13;3.00;;;12.90;99.90;;;;;;5118394;28;20203;-83
2022/05/28 07:18:18;;;;;;;9.53;3.00;;;12.90;99.90;;;;;;5118103;28;20183;-84
2022/05/28 07:20:44;;;;;;;6.83;3.00;;;12.90;99.90;;;;;;5119692;28;20171;-84
2022/05/28 07:23:12;;;;;;;6.17;2.93;;;13.00;99.90;;;;;;5118242;28;20183;-84
2022/05/28 07:25:39;;;;;;;9.97;2.70;;;13.30;99.90;;;;;;5120087;27;20251;-84
2022/05/28 07:28:24;;;;;;;8.13;3.00;;;13.30;99.90;;;;;;5120338;28;20179;-84
2022/05/28 07:30:54;;;;;;;8.00;2.80;;;13.30;99.90;;;;;;5118181;28;20680;-84
2022/05/28 07:33:20;;;;;;;6.27;2.63;;;13.30;99.90;;;;;;5120108;28;20171;-84
2022/05/28 07:35:46;;;;;;;8.17;2.60;;;13.40;99.90;;;;;;5119623;28;20195;-84
2022/05/28 07:38:12;;;;;;;7.43;2.60;;;13.40;99.90;;;;;;5119432;28;20247;-85
2022/05/28 07:40:38;;;;;;;10.03;2.70;;;13.30;99.90;;;;;;5119018;28;20190;-85
2022/05/28 07:43:04;;;;;;;5.23;2.97;;;13.30;99.90;;;;;;5119056;28;20183;-85
2022/05/28 07:45:35;;;;;;;4.87;2.50;;;13.40;99.90;;;;;;5120033;28;20275;-86
2022/05/28 07:48:00;;;;;;;8.30;3.30;;;13.40;99.90;;;;;;5120985;28;20179;-85
2022/05/28 07:50:26;;;;;;;6.30;2.70;;;13.50;99.90;;;;;;5119408;28;20189;-85
2022/05/28 07:52:51;;;;;;;7.60;2.57;;;13.50;99.90;;;;;;5119428;28;20175;-86
2022/05/28 07:55:17;;;;;;;6.70;2.77;;;13.70;99.90;;;;;;5119950;28;20254;-85
2022/05/28 07:57:43;;;;;;;8.20;2.60;;;13.80;99.90;;;;;;5119683;28;20663;-86
2022/05/28 08:00:09;;;;;;;5.40;2.40;;;13.90;99.90;;;;;;5117040;28;20236;-85
2022/05/28 08:02:34;;;;;;;7.53;2.47;;;13.90;99.90;;;;;;5116253;28;20222;-84
2022/05/28 08:05:00;;;;;;;5.83;2.37;;;13.80;99.90;;;;;;5115840;28;20179;-85
2022/05/28 08:07:26;;;;;;;6.00;2.50;;;13.80;99.90;;;;;;5115707;28;20207;-85
2022/05/28 08:09:51;;;;;;;7.67;2.10;;;13.70;99.90;;;;;;5114534;28;20182;-85
2022/05/28 08:12:17;;;;;;;7.87;3.03;;;13.70;99.90;;;;;;5114181;28;20673;-86
2022/05/28 08:14:43;;;;;;;8.33;2.47;;;13.60;99.90;;;;;;5115377;28;20188;-85
2022/05/28 08:17:08;;;;;;;7.97;2.50;;;13.60;99.90;;;;;;5120975;28;20195;-86
2022/05/28 08:19:34;;;;;;;15.33;3.40;;;13.70;99.90;;;;;;5121780;28;20700;-85
2022/05/28 08:24:45;;;;;;;10.60;2.53;;;13.80;99.90;;;;;;5122432;28;20214;-85
2022/05/28 08:27:10;;;;;;;6.80;2.90;;;14.10;99.90;;;;;;5120342;28;20202;-85
2022/05/28 08:29:36;;;;;;;5.73;2.27;;;14.20;99.90;;;;;;5122435;28;20210;-86
2022/05/28 08:32:01;;;;;;;5.13;2.63;;;14.10;99.90;;;;;;5122725;28;20229;-86
2022/05/28 08:34:27;;;;;;;6.60;2.50;;;14.00;99.90;;;;;;5132115;28;20171;-84
2022/05/28 08:36:53;;;;;;;5.67;2.57;;;14.00;99.90;;;;;;5122798;28;20681;-86
2022/05/28 08:39:18;;;;;;;4.93;2.00;;;14.20;99.90;;;;;;5118979;28;20183;-85
2022/05/28 08:41:50;;;;;;;12.20;2.57;;;14.60;99.90;;;;;;5118876;28;20178;-86
2022/05/28 08:44:24;;;;;;;5.30;2.10;;;15.00;99.90;;;;;;5118687;28;20171;-85
2022/05/28 08:47:12;;;;;;;6.27;2.53;;;15.60;99.90;;;;;;5118849;28;20688;-86
2022/05/28 08:49:38;;;;;;;5.33;1.80;;;15.80;99.90;;;;;;5120247;28;20168;-86
2022/05/28 08:52:15;;;;;;;5.17;1.83;;;15.90;99.90;;;;;;5124541;28;20287;-86
2022/05/28 08:54:56;;;;;;;7.03;1.73;;;16.00;99.90;;;;;;5128712;28;20174;-86
2022/05/28 08:57:35;;;;;;;3.13;1.57;;;16.00;99.90;;;;;;5126882;28;20198;-86
2022/05/28 09:00:07;;;;;;;6.83;2.10;;;16.10;99.90;;;;;;5125493;28;20246;-87
2022/05/28 09:02:37;;;;;;;5.37;1.80;;;15.90;99.90;;;;;;5132478;28;20176;-87
2022/05/28 09:05:12;;;;;;;3.77;1.90;;;15.50;99.90;;;;;;5125520;28;20175;-86
2022/05/28 09:07:38;;;;;;;8.63;2.43;;;15.20;99.90;;;;;;5129165;28;20185;-85
2022/05/28 09:10:04;;;;;;;6.23;2.13;;;15.10;99.90;;;;;;5140898;28;20151;-85
2022/05/28 09:12:41;;;;;;;5.53;2.40;;;15.50;99.90;;;;;;5139115;28;20279;-85
2022/05/28 09:15:08;;;;;;;7.63;1.90;;;15.80;99.90;;;;;;5138695;27;20195;-83
2022/05/28 09:17:42;;;;;;;3.67;1.70;;;16.30;99.90;;;;;;5135082;28;20701;-84
2022/05/28 09:20:15;;;;;;;3.20;1.77;;;16.80;99.90;;;;;;5121914;28;20205;-85
2022/05/28 09:22:41;;;;;;;6.13;1.97;;;17.00;99.90;;;;;;5122211;28;20173;-84
2022/05/28 09:25:08;;;;;;;3.97;1.43;;;17.10;99.90;;;;;;5121463;28;20661;-84
2022/05/28 09:27:36;;;;;;;3.73;1.73;;;17.40;99.90;;;;;;5120037;28;20191;-85
2022/05/28 09:30:20;;;;;;;4.67;2.17;;;17.50;99.90;;;;;;5121686;28;20190;-85
2022/05/28 09:32:52;;;;;;;7.47;1.83;;;17.60;99.90;;;;;;5120863;28;20186;-85
2022/05/28 09:35:25;;;;;;;4.03;1.80;;;17.70;99.90;;;;;;5121612;28;20182;-85
2022/05/28 09:38:43;;;;;;;4.33;2.20;;;17.70;97.80;;;;;;5121576;27;20174;-84
2022/05/28 09:41:24;;;;;;;4.10;1.90;;;17.50;99.60;;;;;;5078681;28;20697;-85
2022/05/28 09:44:17;;;;;;;5.43;1.83;;;16.90;99.50;;;;;;5079107;28;20265;-85
2022/05/28 09:46:44;;;;;;;3.93;2.13;;;16.30;99.90;;;;;;5102510;28;20341;-85
2022/05/28 09:49:12;;;;;;;6.43;2.47;;;16.00;98.90;;;;;;5120103;28;20181;-85
2022/05/28 09:51:39;;;;;;;5.00;2.20;;;15.80;99.90;;;;;;5120035;28;20260;-85
2022/05/28 09:54:23;;;;;;;4.53;2.00;;;15.80;99.90;;;;;;5119986;28;20207;-85
2022/05/28 09:57:09;;;;;;;2.40;1.60;;;15.70;99.90;;;;;;5120627;28;20671;-85
2022/05/28 09:59:46;;;;;;;2.27;1.43;;;15.50;99.90;;;;;;5120157;28;20182;-84
2022/05/28 10:02:20;;;;;;;3.70;1.60;;;15.30;99.90;;;;;;5121647;28;20172;-84
2022/05/28 10:05:08;;;;;;;5.63;2.33;;;15.40;99.90;;;;;;5119637;28;20734;-85
2022/05/28 10:07:41;;;;;;;4.97;2.43;;;15.60;99.90;;;;;;5119739;28;20237;-85
2022/05/28 10:10:31;;;;;;;5.03;1.90;;;15.50;99.90;;;;;;5120946;28;20207;-85
2022/05/28 10:13:13;;;;;;;7.10;2.47;;;15.80;99.90;;;;;;5122076;28;20184;-85
2022/05/28 10:15:44;;;;;;;5.27;2.03;;;16.50;99.90;;;;;;5121393;28;20204;-85
2022/05/28 10:18:13;;;;;;;4.80;1.77;;;16.60;99.90;;;;;;5120146;28;20653;-85
2022/05/28 10:20:39;;;;;;;5.13;1.70;;;16.80;99.90;;;;;;5121270;28;20173;-86
2022/05/28 10:23:14;;;;;;;5.73;1.73;;;17.10;99.90;;;;;;5120324;28;20184;-85
2022/05/28 10:25:49;;;;;;;4.70;1.80;;;17.00;99.90;;;;;;5120888;28;20220;-85
2022/05/28 10:28:28;;;;;;;3.13;1.70;;;16.90;99.90;;;;;;5122364;28;20172;-85
2022/05/28 10:30:55;;;;;;;3.40;2.07;;;16.40;99.90;;;;;;5121942;28;20301;-85
2022/05/28 10:33:25;;;;;;;4.50;2.20;;;16.60;99.90;;;;;;5122401;28;20235;-85
2022/05/28 10:35:52;;;;;;;3.53;1.90;;;18.10;99.90;;;;;;5124040;28;20256;-85
2022/05/28 10:38:26;;;;;;;3.93;2.10;;;18.20;99.90;;;;;;5124655;28;20184;-84
2022/05/28 10:40:54;;;;;;;3.43;1.87;;;18.70;98.30;;;;;;5136446;28;20179;-84
2022/05/28 10:43:30;;;;;;;7.57;2.10;;;18.90;99.90;;;;;;5136436;28;20664;-84
2022/05/28 10:46:10;;;;;;;5.30;2.30;;;19.80;99.90;;;;;;5127153;28;20198;-85
2022/05/28 10:48:57;;;;;;;4.90;2.03;;;19.90;99.90;;;;;;5121857;28;20171;-85
2022/05/28 10:52:00;;;;;;;5.17;1.47;;;20.50;98.10;;;;;;5122602;28;20252;-85
2022/05/28 10:54:49;;;;;;;7.30;2.30;;;21.20;99.90;;;;;;5120416;28;20168;-85
2022/05/28 10:57:30;;;;;;;3.33;1.63;;;21.50;99.40;;;;;;5120223;28;20192;-84
2022/05/28 11:00:01;;;;;;;5.80;1.80;;;21.70;99.90;;;;;;5120196;28;20261;-85
2022/05/28 11:02:35;;;;;;;2.50;1.77;;;21.30;93.20;;;;;;5120504;28;20238;-85
2022/05/28 11:05:19;;;;;;;4.93;1.70;;;20.30;95.20;;;;;;5119889;28;20239;-85
2022/05/28 11:08:06;;;;;;;3.03;1.83;;;19.90;97.90;;;;;;5119933;28;20184;-85
2022/05/28 11:10:56;;;;;;;3.57;1.73;;;19.60;97.00;;;;;;5120578;28;20172;-84
2022/05/28 11:13:44;;;;;;;3.03;1.60;;;19.20;95.90;;;;;;5119248;28;20175;-85
2022/05/28 11:16:19;;;;;;;4.97;2.17;;;19.20;98.80;;;;;;5118720;28;20190;-84
2022/05/28 11:19:03;;;;;;;4.23;1.90;;;18.90;96.70;;;;;;5120013;28;20159;-85
2022/05/28 11:21:47;;;;;;;6.13;2.07;;;18.90;96.20;;;;;;5119571;28;20176;-84
2022/05/28 11:24:45;;;;;;;4.13;1.90;;;18.80;94.00;;;;;;5124960;28;20536;-85
2022/05/28 11:27:32;;;;;;;4.93;2.17;;;18.70;98.30;;;;;;5122047;28;20200;-85
2022/05/28 11:30:07;;;;;;;4.10;1.97;;;18.50;97.40;;;;;;5122957;28;20709;-85
2022/05/28 11:32:46;;;;;;;5.93;2.10;;;18.90;97.40;;;;;;5123923;28;20282;-85
2022/05/28 11:35:32;;;;;;;3.63;1.73;;;19.20;94.00;;;;;;5122238;28;20203;-85
2022/05/28 11:38:21;;;;;;;4.40;1.77;;;19.40;94.80;;;;;;5124107;28;20733;-84
2022/05/28 11:41:03;;;;;;;4.10;1.77;;;19.60;94.70;;;;;;5123750;28;20191;-85
2022/05/28 11:43:32;;;;;;;5.33;1.90;;;19.80;94.00;;;;;;5124811;28;20170;-85
2022/05/28 11:46:20;;;;;;;5.77;1.90;;;20.00;93.70;;;;;;5123834;28;20569;-85
2022/05/28 11:52:22;;;;;;;6.13;1.80;;;20.60;90.60;;;;;;5124068;28;20201;-85
2022/05/28 11:55:13;;;;;;;5.80;1.83;;;20.90;98.90;;;;;;5121775;28;20170;-85
2022/05/28 11:58:01;;;;;;;3.10;1.60;;;21.60;96.20;;;;;;5130098;28;20656;-85
2022/05/28 12:00:32;;;;;;;2.60;1.10;;;22.10;89.20;;;;;;5119407;28;20172;-85
2022/05/28 12:03:11;;;;;;;6.60;1.60;;;22.60;93.50;;;;;;5119339;28;20169;-85
2022/05/28 12:06:06;;;;;;;3.00;1.50;;;23.50;91.90;;;;;;5121841;28;20190;-85
2022/05/28 12:08:40;;;;;;;3.63;1.83;;;23.60;92.10;;;;;;5120366;28;20171;-85
2022/05/28 12:11:21;;;;;;;2.93;1.43;;;23.50;91.00;;;;;;5120495;28;20203;-85
2022/05/28 12:13:53;;;;;;;4.73;1.50;;;23.10;86.30;;;;;;5121101;28;20220;-85
2022/05/28 12:16:22;;;;;;;1.77;1.07;;;22.60;89.00;;;;;;5120194;28;20198;-84
2022/05/28 12:19:15;;;;;;;2.47;1.00;;;22.70;75.50;;;;;;5120859;28;20181;-85
2022/05/28 12:21:44;;;;;;;3.40;1.10;;;22.80;81.60;;;;;;5120895;27;20180;-85
2022/05/28 12:24:19;;;;;;;5.87;1.23;;;22.70;79.50;;;;;;5126903;28;20237;-84
2022/05/28 12:27:00;;;;;;;3.27;1.20;;;23.80;89.00;;;;;;5129466;28;20193;-84
2022/05/28 12:30:02;;;;;;;2.00;0.87;;;23.90;80.30;;;;;;5131146;28;20170;-84
2022/05/28 12:32:27;;;;;;;2.70;1.00;;;23.30;85.30;;;;;;5128994;28;20672;-84
2022/05/28 12:35:09;;;;;;;3.40;1.07;;;22.50;77.10;;;;;;5130296;27;20184;-85
2022/05/28 12:37:34;;;;;;;2.50;1.40;;;22.00;82.40;;;;;;5121465;28;20191;-85
2022/05/28 12:40:27;;;;;;;4.73;1.40;;;22.00;81.10;;;;;;5121700;28;20177;-85
2022/05/28 12:42:53;;;;;;;3.60;1.10;;;22.00;78.70;;;;;;5122397;28;20163;-85
2022/05/28 12:45:41;;;;;;;1.80;1.13;;;20.60;87.60;;;;;;5121041;28;20249;-85
2022/05/28 12:48:32;;;;;;;4.77;1.27;;;20.60;83.00;;;;;;5120523;28;20182;-85
2022/05/28 12:51:22;;;;;;;4.13;1.53;;;20.10;86.40;;;;;;5120235;27;20220;-84
2022/05/28 12:54:00;;;;;;;4.37;1.03;;;19.90;87.50;;;;;;5119524;28;20200;-84
2022/05/28 12:56:43;;;;;;;3.87;1.30;;;20.00;88.20;;;;;;5120356;28;20202;-85
2022/05/28 12:59:16;;;;;;;3.07;1.30;;;20.60;83.80;;;;;;5121448;28;20233;-84
2022/05/28 13:02:10;;;;;;;2.27;1.10;;;20.30;83.50;;;;;;5120020;28;20555;-85
2022/05/28 13:04:41;;;;;;;2.50;0.90;;;19.40;88.40;;;;;;5121477;28;20171;-85
2022/05/28 13:07:19;;;;;;;1.80;0.90;;;18.90;84.70;;;;;;5120890;28;20192;-85
2022/05/28 13:09:45;;;;;;;2.60;1.10;;;;;;;;;;5120464;28;20172;-85
2022/05/28 13:12:11;;;;;;;4.27;1.17;;;18.80;88.30;;;;;;5119859;28;20258;-84
2022/05/28 13:14:58;;;;;;;1.20;0.90;;;18.80;88.40;;;;;;5118834;28;20263;-84
2022/05/28 13:17:43;;;;;;;3.97;1.20;;;18.50;83.30;;;;;;5119617;28;20282;-85
2022/05/28 13:20:27;;;;;;;4.33;1.23;;;18.50;89.70;;;;;;5121667;28;20255;-85
2022/05/28 13:23:10;;;;;;;2.97;1.10;;;18.70;82.60;;;;;;5120389;28;20175;-86
2022/05/28 13:25:57;;;;;;;3.47;1.23;;;18.50;88.20;;;;;;5120232;28;20261;-85
2022/05/28 13:29:08;;;;;;;3.07;1.13;;;18.50;87.00;;;;;;5119958;28;20171;-86
2022/05/28 13:31:38;;;;;;;4.20;0.90;;;18.40;80.80;;;;;;5119694;28;20667;-86
2022/05/28 13:34:05;;;;;;;2.23;1.10;;;18.20;91.90;;;;;;5119145;28;20172;-85
2022/05/28 13:36:33;;;;;;;3.67;0.90;;;17.80;81.70;;;;;;5118098;28;20282;-85
2022/05/28 13:39:00;;;;;;;2.53;1.17;;;17.50;91.10;;;;;;5122116;28;20266;-86